Time;durP1;ratioP1;P1;durP2;ratioP2;P2;SDS_P1;SDS_P2;PMS_P1;PMS_P2;Temp;Humidity;BMP_temperature;BMP_pressure;BME280_temperature;BME280_humidity;BME280_pressure;Samples;Min_cycle;Max_cycle;Signal;HPM_P1;HPM_P2
2022/05/22 00:00:45;;;;;;;4.20;1.30;;;14.70;99.90;;;;;;5054120;28;20452;-59
2022/05/22 00:03:12;;;;;;;3.00;1.20;;;14.70;99.90;;;;;;5054380;28;20488;-59
2022/05/22 00:05:38;;;;;;;2.07;1.30;;;14.60;99.90;;;;;;5054213;28;20553;-59
2022/05/22 00:08:05;;;;;;;2.50;1.00;;;14.60;99.90;;;;;;5054140;28;20983;-59
2022/05/22 00:10:32;;;;;;;3.33;1.20;;;14.60;99.90;;;;;;5054028;28;20531;-59
2022/05/22 00:13:00;;;;;;;4.50;1.43;;;14.60;99.90;;;;;;5053813;28;20571;-59
2022/05/22 00:15:27;;;;;;;2.93;1.50;;;14.50;99.90;;;;;;5054101;28;20482;-59
2022/05/22 00:17:53;;;;;;;3.53;1.30;;;14.50;99.90;;;;;;5053969;28;20456;-59
2022/05/22 00:20:20;;;;;;;1.90;1.17;;;14.50;99.90;;;;;;5053936;28;20543;-59
2022/05/22 00:22:46;;;;;;;8.63;1.80;;;14.50;99.90;;;;;;5053864;28;20931;-59
2022/05/22 00:25:13;;;;;;;2.90;1.23;;;14.40;99.90;;;;;;5053739;28;20452;-59
2022/05/22 00:27:42;;;;;;;5.93;1.50;;;14.50;99.90;;;;;;5053693;28;20448;-59
2022/05/22 00:30:11;;;;;;;1.60;1.03;;;14.50;99.90;;;;;;5053588;28;20966;-59
2022/05/22 00:32:38;;;;;;;2.50;1.30;;;14.50;99.90;;;;;;5053658;28;20494;-59
2022/05/22 00:35:06;;;;;;;5.30;1.30;;;14.50;99.90;;;;;;5053650;28;20448;-59
2022/05/22 00:37:33;;;;;;;3.80;1.77;;;14.50;99.90;;;;;;5053526;28;20539;-59
2022/05/22 00:39:59;;;;;;;2.97;1.00;;;14.40;99.90;;;;;;5053498;28;20480;-59
2022/05/22 00:42:26;;;;;;;3.37;1.50;;;14.40;99.90;;;;;;5053139;28;20456;-59
2022/05/22 00:44:54;;;;;;;3.20;1.00;;;14.40;99.90;;;;;;5053441;28;20995;-59
2022/05/22 00:47:22;;;;;;;3.43;1.23;;;14.30;99.90;;;;;;5053390;28;20453;-59
2022/05/22 00:49:50;;;;;;;5.40;1.30;;;14.40;99.90;;;;;;5053418;28;20456;-59
2022/05/22 00:52:22;;;;;;;3.53;1.00;;;14.20;99.90;;;;;;5053211;28;20982;-59
2022/05/22 00:54:53;;;;;;;4.07;1.33;;;14.30;99.90;;;;;;5053205;28;20631;-59
2022/05/22 00:57:23;;;;;;;3.77;1.30;;;14.30;99.90;;;;;;5053710;28;20559;-59
2022/05/22 00:59:54;;;;;;;4.47;1.47;;;14.30;99.90;;;;;;5053351;28;20448;-59
2022/05/22 01:02:22;;;;;;;3.07;1.17;;;14.30;99.90;;;;;;5053220;28;20456;-59
2022/05/22 01:04:51;;;;;;;5.87;1.27;;;14.50;99.90;;;;;;5053068;28;20539;-59
2022/05/22 01:07:18;;;;;;;2.23;1.53;;;14.50;99.90;;;;;;5053008;28;20452;-59
2022/05/22 01:09:46;;;;;;;5.43;1.10;;;14.40;99.90;;;;;;5053164;28;20448;-59
2022/05/22 01:12:17;;;;;;;1.90;1.20;;;14.40;99.90;;;;;;5053012;28;20483;-59
2022/05/22 01:14:47;;;;;;;3.97;1.30;;;14.40;99.90;;;;;;5053157;28;20456;-59
2022/05/22 01:17:14;;;;;;;3.30;1.00;;;14.40;99.90;;;;;;5053266;28;20468;-59
2022/05/22 01:19:42;;;;;;;2.03;1.30;;;14.30;99.90;;;;;;5052896;28;20480;-59
2022/05/22 01:22:12;;;;;;;7.23;1.87;;;14.20;99.90;;;;;;5053131;28;20878;-59
2022/05/22 01:24:39;;;;;;;3.30;1.40;;;14.20;99.90;;;;;;5053053;28;20453;-59
2022/05/22 01:27:10;;;;;;;2.97;1.40;;;14.30;99.90;;;;;;5052988;28;20930;-59
2022/05/22 01:29:36;;;;;;;5.10;1.37;;;14.30;99.90;;;;;;5052966;28;20452;-59
2022/05/22 01:32:04;;;;;;;3.47;1.33;;;14.30;99.90;;;;;;5052760;28;20876;-59
2022/05/22 01:34:32;;;;;;;2.80;1.40;;;14.10;99.90;;;;;;5052770;28;20856;-59
2022/05/22 01:36:58;;;;;;;3.17;1.20;;;14.00;99.90;;;;;;5053027;28;20966;-59
2022/05/22 01:39:26;;;;;;;6.70;1.63;;;14.00;99.90;;;;;;5052787;28;20452;-59
2022/05/22 01:41:53;;;;;;;3.23;1.30;;;14.00;99.90;;;;;;5052789;28;20448;-59
2022/05/22 01:44:19;;;;;;;2.90;1.30;;;14.10;99.90;;;;;;5052636;28;20510;-59
2022/05/22 01:46:46;;;;;;;3.70;1.50;;;13.90;99.90;;;;;;5052606;28;20559;-59
2022/05/22 01:49:13;;;;;;;5.50;1.30;;;13.90;99.90;;;;;;5052871;28;20536;-59
2022/05/22 01:51:41;;;;;;;5.77;1.87;;;13.80;99.90;;;;;;5052933;28;20634;-59
2022/05/22 01:54:08;;;;;;;2.27;1.43;;;13.80;99.90;;;;;;5052493;28;20480;-59
2022/05/22 01:56:38;;;;;;;3.20;1.10;;;13.90;99.90;;;;;;5052626;28;20453;-59
2022/05/22 01:59:05;;;;;;;3.60;1.30;;;13.90;99.90;;;;;;5055494;28;20548;-59
2022/05/22 02:01:32;;;;;;;3.90;1.40;;;13.90;99.90;;;;;;5056437;28;20451;-59
2022/05/22 02:03:59;;;;;;;2.10;1.20;;;13.90;99.90;;;;;;5056536;28;20535;-59
2022/05/22 02:06:25;;;;;;;4.03;1.90;;;13.80;99.90;;;;;;5056473;28;20535;-59
2022/05/22 02:08:51;;;;;;;3.27;1.40;;;13.70;99.90;;;;;;5056371;28;20574;-59
2022/05/22 02:11:17;;;;;;;2.30;1.20;;;13.70;99.90;;;;;;5056308;28;20543;-59
2022/05/22 02:13:45;;;;;;;3.33;1.40;;;13.70;99.90;;;;;;5056112;28;20228;-59
2022/05/22 02:16:12;;;;;;;4.67;1.63;;;13.70;99.90;;;;;;5056078;28;20448;-59
2022/05/22 02:18:39;;;;;;;4.47;1.50;;;13.80;99.90;;;;;;5056362;28;20555;-59
2022/05/22 02:21:06;;;;;;;3.90;1.43;;;13.80;99.90;;;;;;5056230;28;20463;-59
2022/05/22 02:23:34;;;;;;;5.60;1.57;;;13.70;99.90;;;;;;5056157;28;20811;-59
2022/05/22 02:26:01;;;;;;;4.23;1.60;;;13.60;99.90;;;;;;5056044;28;20444;-59
2022/05/22 02:28:28;;;;;;;3.83;1.37;;;13.70;99.90;;;;;;5055961;28;20444;-59
2022/05/22 02:30:58;;;;;;;4.37;1.67;;;13.80;99.90;;;;;;5056147;28;20458;-59
2022/05/22 02:33:26;;;;;;;5.60;1.37;;;13.90;99.90;;;;;;5055975;28;20476;-59
2022/05/22 02:35:53;;;;;;;2.90;1.67;;;13.90;99.90;;;;;;5056034;28;20880;-59
2022/05/22 02:38:20;;;;;;;2.20;1.53;;;13.90;99.90;;;;;;5055883;28;20455;-59
2022/05/22 02:40:47;;;;;;;3.80;1.90;;;13.90;99.90;;;;;;5055679;28;21015;-60
2022/05/22 02:43:14;;;;;;;3.53;1.50;;;13.90;99.90;;;;;;5055584;28;20567;-59
2022/05/22 02:45:41;;;;;;;4.60;1.43;;;13.70;99.90;;;;;;5055789;28;20484;-59
2022/05/22 02:48:11;;;;;;;4.87;1.40;;;13.70;99.90;;;;;;5055675;28;20539;-59
2022/05/22 02:50:39;;;;;;;2.20;1.60;;;13.60;99.90;;;;;;5055601;28;20457;-59
2022/05/22 02:53:06;;;;;;;2.63;1.80;;;13.60;99.90;;;;;;5055518;28;20512;-59
2022/05/22 02:55:32;;;;;;;6.90;1.47;;;13.60;99.90;;;;;;5055421;28;20458;-59
2022/05/22 02:57:59;;;;;;;4.10;1.60;;;13.70;99.90;;;;;;5055562;28;20807;-59
2022/05/22 03:00:27;;;;;;;7.67;2.60;;;13.80;99.90;;;;;;5055319;28;20964;-59
2022/05/22 03:02:54;;;;;;;2.60;1.40;;;13.90;99.90;;;;;;5055483;28;20866;-59
2022/05/22 03:05:26;;;;;;;6.80;1.90;;;13.90;99.90;;;;;;5055339;28;20868;-59
2022/05/22 03:07:52;;;;;;;4.00;1.20;;;13.90;99.90;;;;;;5055316;28;20846;-60
2022/05/22 03:10:19;;;;;;;3.53;2.07;;;13.90;99.90;;;;;;5054091;28;20874;-59
2022/05/22 03:12:46;;;;;;;4.53;2.00;;;13.90;99.90;;;;;;5055229;28;20548;-59
2022/05/22 03:15:14;;;;;;;2.97;1.80;;;13.90;99.90;;;;;;5055312;28;20484;-59
2022/05/22 03:17:41;;;;;;;4.83;1.30;;;13.90;99.90;;;;;;5055203;28;20449;-59
2022/05/22 03:20:09;;;;;;;2.63;1.37;;;13.90;99.90;;;;;;5055065;28;20518;-59
2022/05/22 03:22:36;;;;;;;5.03;1.90;;;13.80;99.90;;;;;;5054963;28;20548;-59
2022/05/22 03:25:04;;;;;;;3.40;1.63;;;13.90;99.90;;;;;;5055293;28;21055;-59
2022/05/22 03:27:31;;;;;;;6.13;1.40;;;13.90;99.90;;;;;;5055090;28;20448;-59
2022/05/22 03:29:57;;;;;;;4.87;1.10;;;13.80;99.90;;;;;;5055031;28;21036;-59
2022/05/22 03:32:24;;;;;;;7.70;1.40;;;13.80;99.90;;;;;;5054806;28;20444;-59
2022/05/22 03:34:50;;;;;;;4.07;1.60;;;13.70;99.90;;;;;;5054739;28;20898;-59
2022/05/22 03:37:17;;;;;;;2.03;1.37;;;13.70;99.90;;;;;;5054649;28;20454;-59
2022/05/22 03:39:44;;;;;;;5.50;1.57;;;13.60;99.90;;;;;;5054802;28;20847;-59
2022/05/22 03:42:11;;;;;;;2.33;1.47;;;13.60;99.90;;;;;;5054727;28;20877;-59
2022/05/22 03:44:38;;;;;;;3.80;1.63;;;13.60;99.90;;;;;;5054335;28;20487;-59
2022/05/22 03:47:06;;;;;;;7.30;1.90;;;13.60;99.90;;;;;;5054517;28;20459;-59
2022/05/22 03:49:33;;;;;;;4.33;1.60;;;13.60;99.90;;;;;;5054410;28;20483;-59
2022/05/22 03:51:59;;;;;;;3.37;1.50;;;13.60;99.90;;;;;;5054511;28;20543;-59
2022/05/22 03:54:26;;;;;;;5.20;1.50;;;13.50;99.90;;;;;;5054375;28;20480;-59
2022/05/22 03:56:55;;;;;;;3.53;1.47;;;13.50;99.90;;;;;;5054582;28;20606;-59
2022/05/22 03:59:21;;;;;;;7.87;1.97;;;13.40;99.90;;;;;;5054385;28;20539;-59
2022/05/22 04:01:48;;;;;;;5.23;1.73;;;13.50;99.90;;;;;;5054251;28;20886;-59
2022/05/22 04:04:14;;;;;;;6.27;1.93;;;13.60;99.90;;;;;;5054149;28;20448;-59
2022/05/22 04:06:41;;;;;;;5.53;1.67;;;13.70;99.90;;;;;;5054384;28;20452;-59
2022/05/22 04:09:08;;;;;;;4.77;1.60;;;13.70;99.90;;;;;;5054142;28;20808;-59
2022/05/22 04:11:35;;;;;;;2.77;1.33;;;13.50;99.90;;;;;;5054151;28;20452;-59
2022/05/22 04:14:03;;;;;;;4.63;1.90;;;13.60;99.90;;;;;;5053905;28;20486;-59
2022/05/22 04:16:29;;;;;;;3.67;2.07;;;13.70;99.90;;;;;;5053902;28;20542;-59
2022/05/22 04:18:56;;;;;;;3.83;1.40;;;13.60;99.90;;;;;;5053884;28;20452;-59
2022/05/22 04:21:22;;;;;;;3.93;1.77;;;13.60;99.90;;;;;;5053562;28;20452;-59
2022/05/22 04:26:33;;;;;;;4.07;2.07;;;13.60;99.90;;;;;;5053819;28;20447;-59
2022/05/22 04:29:00;;;;;;;4.27;1.47;;;13.60;99.90;;;;;;5053760;28;20452;-59
2022/05/22 04:31:28;;;;;;;3.03;1.50;;;13.60;99.90;;;;;;5053552;28;20818;-59
2022/05/22 04:33:54;;;;;;;8.27;2.03;;;13.70;99.90;;;;;;5053853;28;20571;-59
2022/05/22 04:36:21;;;;;;;3.73;2.03;;;13.60;99.90;;;;;;5053625;28;20543;-59
2022/05/22 04:38:47;;;;;;;2.40;1.60;;;13.70;99.90;;;;;;5053611;28;20565;-59
2022/05/22 04:41:14;;;;;;;6.70;2.70;;;13.70;99.90;;;;;;5053492;28;20455;-59
2022/05/22 04:43:40;;;;;;;3.03;1.67;;;13.80;99.90;;;;;;5053271;28;20486;-59
2022/05/22 04:46:08;;;;;;;4.37;1.70;;;13.90;99.90;;;;;;5053382;28;20804;-59
2022/05/22 04:48:36;;;;;;;5.00;2.03;;;13.90;99.90;;;;;;5053512;28;20814;-59
2022/05/22 04:51:03;;;;;;;5.43;2.37;;;14.10;99.90;;;;;;5053468;28;20547;-59
2022/05/22 04:53:30;;;;;;;3.20;1.70;;;14.20;99.90;;;;;;5053262;28;20556;-59
2022/05/22 04:55:57;;;;;;;5.37;2.43;;;14.30;99.90;;;;;;5053266;28;20543;-59
2022/05/22 04:58:24;;;;;;;6.57;2.50;;;14.40;99.90;;;;;;5053218;28;20448;-59
2022/05/22 05:00:50;;;;;;;3.20;1.83;;;14.20;99.90;;;;;;5053091;28;20519;-59
2022/05/22 05:03:17;;;;;;;5.63;3.03;;;14.30;99.90;;;;;;5053194;28;20484;-59
2022/05/22 05:05:53;;;;;;;3.80;1.70;;;14.30;99.90;;;;;;5053257;28;20572;-59
2022/05/22 05:08:20;;;;;;;10.50;2.60;;;14.30;99.90;;;;;;5053177;28;20455;-59
2022/05/22 05:10:46;;;;;;;7.07;2.27;;;14.10;99.90;;;;;;5052909;28;20535;-60
2022/05/22 05:13:13;;;;;;;4.77;1.80;;;14.10;99.90;;;;;;5052852;28;20546;-59
2022/05/22 05:15:40;;;;;;;9.23;2.70;;;14.30;99.90;;;;;;5053099;28;20455;-59
2022/05/22 05:18:06;;;;;;;10.13;2.40;;;14.50;99.90;;;;;;5053055;28;20452;-59
2022/05/22 05:20:33;;;;;;;6.50;2.60;;;14.70;99.90;;;;;;5053034;28;20480;-59
2022/05/22 05:23:04;;;;;;;3.80;1.93;;;14.90;99.90;;;;;;5053043;28;20551;-59
2022/05/22 05:25:31;;;;;;;7.53;2.20;;;15.10;99.90;;;;;;5052978;28;20459;-60
2022/05/22 05:27:57;;;;;;;7.13;2.60;;;15.20;99.90;;;;;;5053087;28;20852;-59
2022/05/22 05:30:24;;;;;;;6.80;2.17;;;15.30;99.90;;;;;;5053064;28;20444;-59
2022/05/22 05:32:55;;;;;;;5.40;2.23;;;15.50;99.90;;;;;;5053904;28;20539;-59
2022/05/22 05:35:21;;;;;;;5.43;1.90;;;15.60;99.90;;;;;;5056990;28;20941;-59
2022/05/22 05:37:48;;;;;;;6.50;2.27;;;15.50;99.90;;;;;;5056818;28;20958;-59
2022/05/22 05:40:16;;;;;;;5.10;2.10;;;15.40;99.90;;;;;;5056889;28;20912;-59
2022/05/22 05:42:42;;;;;;;4.60;2.97;;;15.50;99.90;;;;;;5056842;28;20468;-59
2022/05/22 05:45:11;;;;;;;6.53;2.00;;;15.50;99.90;;;;;;5056905;28;20547;-59
2022/05/22 05:47:37;;;;;;;12.67;3.60;;;15.60;99.90;;;;;;5056763;28;20543;-59
2022/05/22 05:50:05;;;;;;;3.13;2.00;;;15.60;99.90;;;;;;5056784;28;20915;-59
2022/05/22 05:52:32;;;;;;;4.23;2.33;;;15.60;99.90;;;;;;5056590;28;20455;-59
2022/05/22 05:54:58;;;;;;;5.63;2.17;;;15.50;99.90;;;;;;5056689;28;20567;-59
2022/05/22 05:57:26;;;;;;;4.33;2.20;;;15.50;99.90;;;;;;5056652;28;20573;-59
2022/05/22 05:59:54;;;;;;;12.00;2.27;;;15.60;99.90;;;;;;5056650;28;20797;-59
2022/05/22 06:02:21;;;;;;;7.00;1.77;;;15.70;99.90;;;;;;5056569;28;20499;-59
2022/05/22 06:04:47;;;;;;;4.83;2.03;;;15.90;99.90;;;;;;5056358;28;20454;-59
2022/05/22 06:07:14;;;;;;;10.20;2.60;;;15.70;99.90;;;;;;5056339;28;21010;-59
2022/05/22 06:09:41;;;;;;;5.57;2.93;;;15.80;99.90;;;;;;5056519;28;20540;-60
2022/05/22 06:12:08;;;;;;;4.90;2.53;;;16.00;99.90;;;;;;5056426;28;20475;-59
2022/05/22 06:14:36;;;;;;;5.60;2.30;;;16.10;99.90;;;;;;5056223;28;20487;-59
2022/05/22 06:17:02;;;;;;;4.50;2.07;;;16.10;99.90;;;;;;5056239;28;20544;-59
2022/05/22 06:22:15;;;;;;;7.13;4.30;;;16.40;99.90;;;;;;5056052;28;20850;-60
2022/05/22 06:24:41;;;;;;;13.03;5.00;;;16.10;99.90;;;;;;5056144;28;20448;-59
2022/05/22 06:27:08;;;;;;;18.80;9.10;;;16.20;99.90;;;;;;5055969;28;20965;-59
2022/05/22 06:29:36;;;;;;;10.07;5.23;;;16.30;99.90;;;;;;5055989;28;20448;-59
2022/05/22 06:32:03;;;;;;;8.10;4.90;;;16.40;99.90;;;;;;5055917;28;20531;-59
2022/05/22 06:34:33;;;;;;;7.03;5.43;;;16.40;99.90;;;;;;5055737;28;20475;-59
2022/05/22 06:37:01;;;;;;;6.80;4.20;;;16.20;99.90;;;;;;5055913;28;20547;-59
2022/05/22 06:42:13;;;;;;;5.57;2.70;;;16.30;99.90;;;;;;5055802;28;20514;-59
2022/05/22 06:44:41;;;;;;;6.93;4.23;;;16.50;99.90;;;;;;5055025;28;20486;-60
2022/05/22 06:47:09;;;;;;;11.03;4.63;;;16.80;99.90;;;;;;5055556;28;20946;-59
2022/05/22 06:49:36;;;;;;;9.83;6.03;;;16.80;99.90;;;;;;5055722;28;20535;-59
2022/05/22 06:52:03;;;;;;;13.50;10.53;;;17.00;99.90;;;;;;5055687;28;21013;-59
2022/05/22 06:54:30;;;;;;;12.40;11.07;;;17.00;99.90;;;;;;5055451;28;20472;-59
2022/05/22 06:56:57;;;;;;;19.60;13.07;;;16.70;99.90;;;;;;5055480;28;20650;-59
2022/05/22 06:59:24;;;;;;;15.57;10.67;;;16.60;99.90;;;;;;5055381;28;20480;-59
2022/05/22 07:01:52;;;;;;;7.23;3.83;;;16.70;99.90;;;;;;5055532;28;20448;-60
2022/05/22 07:04:21;;;;;;;4.50;2.20;;;16.80;99.90;;;;;;5055476;28;20478;-59
2022/05/22 07:06:48;;;;;;;6.67;2.30;;;17.00;99.90;;;;;;5055279;28;20453;-59
2022/05/22 07:09:15;;;;;;;5.10;2.40;;;16.90;99.90;;;;;;5055282;28;20784;-59
2022/05/22 07:11:41;;;;;;;5.20;1.60;;;16.90;99.90;;;;;;5055065;28;20448;-59
2022/05/22 07:14:09;;;;;;;3.77;1.80;;;16.90;99.90;;;;;;5054931;28;20478;-59
2022/05/22 07:16:37;;;;;;;5.97;2.50;;;16.90;99.90;;;;;;5055245;28;20452;-59
2022/05/22 07:19:07;;;;;;;4.17;2.77;;;17.10;99.90;;;;;;5055117;28;20455;-59
2022/05/22 07:21:34;;;;;;;5.00;2.30;;;17.20;99.90;;;;;;5055109;28;20452;-59
2022/05/22 07:24:00;;;;;;;3.63;1.93;;;17.10;99.90;;;;;;5054917;28;20962;-59
2022/05/22 07:26:27;;;;;;;3.20;1.93;;;17.10;99.90;;;;;;5054747;28;20467;-59
2022/05/22 07:28:54;;;;;;;7.87;1.90;;;17.00;99.90;;;;;;5055042;28;20444;-60
2022/05/22 07:31:22;;;;;;;4.50;2.70;;;17.00;99.90;;;;;;5054834;28;20484;-59
2022/05/22 07:33:49;;;;;;;4.33;2.00;;;16.90;99.90;;;;;;5054750;28;20534;-59
2022/05/22 07:36:17;;;;;;;5.97;2.23;;;17.00;99.90;;;;;;5054807;28;21031;-59
2022/05/22 07:38:44;;;;;;;4.70;1.90;;;17.10;99.90;;;;;;5054550;28;20451;-59
2022/05/22 07:41:12;;;;;;;3.70;2.00;;;16.90;99.90;;;;;;5054864;28;20444;-59
2022/05/22 07:43:38;;;;;;;3.50;1.70;;;16.70;99.90;;;;;;5054273;28;20828;-60
2022/05/22 07:46:05;;;;;;;7.70;2.60;;;16.80;99.90;;;;;;5054632;28;20988;-59
2022/05/22 07:48:32;;;;;;;4.27;2.27;;;16.70;99.90;;;;;;5054474;28;20448;-59
2022/05/22 07:51:00;;;;;;;4.83;2.10;;;17.00;99.90;;;;;;5054398;28;20555;-59
2022/05/22 07:53:29;;;;;;;3.90;1.97;;;17.10;99.90;;;;;;5054284;28;20451;-59
2022/05/22 07:55:56;;;;;;;6.90;2.07;;;17.10;99.90;;;;;;5053522;28;20476;-60
2022/05/22 07:58:24;;;;;;;2.10;1.87;;;17.20;99.90;;;;;;5054465;28;20860;-60
2022/05/22 08:00:52;;;;;;;6.17;1.83;;;17.20;99.90;;;;;;5054257;28;20455;-59
2022/05/22 08:03:19;;;;;;;3.53;1.87;;;17.20;99.90;;;;;;5054192;28;20460;-59
2022/05/22 08:05:45;;;;;;;2.53;1.23;;;17.20;99.90;;;;;;5054107;28;20931;-59
2022/05/22 08:08:12;;;;;;;5.30;1.63;;;17.20;99.90;;;;;;5053977;28;20459;-60
2022/05/22 08:10:41;;;;;;;6.47;1.50;;;17.40;99.90;;;;;;5054103;28;20531;-60
2022/05/22 08:13:10;;;;;;;12.73;1.80;;;17.40;99.90;;;;;;5054005;28;20455;-59
2022/05/22 08:15:38;;;;;;;2.30;1.40;;;17.30;99.90;;;;;;5053869;28;20483;-59
2022/05/22 08:18:07;;;;;;;3.23;1.63;;;17.30;99.90;;;;;;5053902;28;20455;-60
2022/05/22 08:20:36;;;;;;;4.77;1.70;;;17.30;99.90;;;;;;5053680;28;20448;-59
2022/05/22 08:23:05;;;;;;;2.50;1.60;;;17.40;99.90;;;;;;5054339;28;20940;-60
2022/05/22 08:25:32;;;;;;;4.03;1.60;;;17.40;99.90;;;;;;5053926;28;20448;-60
2022/05/22 08:28:00;;;;;;;6.90;1.57;;;17.40;99.90;;;;;;5053654;28;20495;-59
2022/05/22 08:30:30;;;;;;;4.17;1.47;;;17.30;99.90;;;;;;5053798;28;20448;-59
2022/05/22 08:32:57;;;;;;;6.57;2.57;;;17.30;99.90;;;;;;5053466;28;20452;-60
2022/05/22 08:35:26;;;;;;;3.70;1.50;;;17.50;99.90;;;;;;5053578;28;20487;-59
2022/05/22 08:37:53;;;;;;;4.43;1.70;;;17.70;99.90;;;;;;5053486;28;20988;-60
2022/05/22 08:40:23;;;;;;;5.43;1.53;;;18.10;99.90;;;;;;5053674;28;20448;-60
2022/05/22 08:42:55;;;;;;;3.07;1.10;;;18.30;99.90;;;;;;5053368;28;20508;-59
2022/05/22 08:45:28;;;;;;;2.70;1.30;;;18.30;99.90;;;;;;5053362;28;20543;-60
2022/05/22 08:48:02;;;;;;;3.27;1.20;;;18.40;99.90;;;;;;5053674;28;20456;-60
2022/05/22 08:50:30;;;;;;;2.77;1.23;;;18.20;99.90;;;;;;5053488;28;20502;-60
2022/05/22 08:53:00;;;;;;;1.70;1.30;;;18.20;99.90;;;;;;5053284;28;20536;-59
2022/05/22 09:01:08;;;;;;;3.00;1.03;;;18.10;99.90;;;;;;5053219;28;20791;-60
2022/05/22 09:03:45;;;;;;;4.00;1.67;;;18.10;99.90;;;;;;5053376;28;20531;-59
2022/05/22 09:06:12;;;;;;;1.47;1.30;;;18.20;99.90;;;;;;5053065;28;20551;-60
2022/05/22 09:08:43;;;;;;;3.20;0.90;;;18.20;99.90;;;;;;5052865;28;20559;-59
2022/05/22 09:11:15;;;;;;;3.80;1.10;;;18.10;99.90;;;;;;5053136;28;20551;-60
2022/05/22 09:13:49;;;;;;;2.27;1.20;;;18.00;99.90;;;;;;5053130;28;20448;-60
2022/05/22 09:16:23;;;;;;;2.07;1.13;;;18.00;99.90;;;;;;5053029;28;20575;-59
2022/05/22 09:18:57;;;;;;;1.30;1.00;;;18.00;99.90;;;;;;5052740;28;20886;-59
2022/05/22 09:21:31;;;;;;;3.77;1.27;;;18.00;99.90;;;;;;5053072;28;20965;-60
2022/05/22 09:24:01;;;;;;;1.87;1.00;;;17.60;99.90;;;;;;5052963;28;20857;-59
2022/05/22 09:26:47;;;;;;;3.43;0.97;;;17.60;99.90;;;;;;5052887;28;20455;-60
2022/05/22 09:29:34;;;;;;;2.40;1.00;;;17.80;99.90;;;;;;5052771;28;20536;-60
2022/05/22 09:32:11;;;;;;;1.20;1.10;;;18.00;99.90;;;;;;5052935;28;20539;-60
2022/05/22 09:34:44;;;;;;;3.00;1.00;;;18.20;99.90;;;;;;5052640;28;20550;-59
2022/05/22 09:37:22;;;;;;;3.67;1.10;;;18.20;99.90;;;;;;5052760;28;20816;-59
2022/05/22 09:40:02;;;;;;;2.23;1.00;;;18.00;99.90;;;;;;5052656;28;20452;-59
2022/05/22 09:42:43;;;;;;;1.30;0.80;;;18.10;99.90;;;;;;5052753;28;20450;-60
2022/05/22 09:45:27;;;;;;;3.13;1.00;;;18.10;99.90;;;;;;5052610;28;20452;-59
2022/05/22 09:48:27;;;;;;;3.37;1.20;;;18.10;99.90;;;;;;5052677;28;20796;-60
2022/05/22 09:51:03;;;;;;;1.90;1.20;;;18.10;99.90;;;;;;5052606;28;20459;-60
2022/05/22 09:53:42;;;;;;;3.90;1.30;;;18.30;99.90;;;;;;5052550;28;20539;-60
2022/05/22 09:56:19;;;;;;;2.13;1.27;;;18.30;99.90;;;;;;5052579;28;20537;-60
2022/05/22 09:59:00;;;;;;;2.93;1.30;;;18.50;99.90;;;;;;5052810;28;20530;-60
2022/05/22 10:01:32;;;;;;;1.50;1.10;;;18.80;99.90;;;;;;5052648;28;20527;-59
2022/05/22 10:04:14;;;;;;;3.53;1.13;;;18.70;99.90;;;;;;5052530;28;20483;-59
2022/05/22 10:06:49;;;;;;;1.57;1.20;;;18.90;99.90;;;;;;5052385;28;21038;-59
2022/05/22 10:09:24;;;;;;;2.80;1.10;;;18.90;99.90;;;;;;5052666;28;20883;-60
2022/05/22 10:12:07;;;;;;;2.80;1.50;;;18.70;99.90;;;;;;5052523;28;20542;-60
2022/05/22 10:14:46;;;;;;;2.60;1.20;;;18.50;99.90;;;;;;5052376;28;20466;-59
2022/05/22 10:17:25;;;;;;;1.30;0.90;;;18.50;99.90;;;;;;5052101;28;20539;-59
2022/05/22 10:20:03;;;;;;;2.73;1.10;;;18.40;99.90;;;;;;5054985;28;20811;-59
2022/05/22 10:22:43;;;;;;;1.37;0.97;;;18.30;99.90;;;;;;5056121;28;20501;-59
2022/05/22 10:25:25;;;;;;;2.10;0.93;;;18.70;99.90;;;;;;5056026;28;20451;-60
2022/05/22 10:27:56;;;;;;;3.03;1.10;;;19.10;99.90;;;;;;5056000;28;20428;-59
2022/05/22 10:30:30;;;;;;;2.37;1.47;;;19.50;99.90;;;;;;5056120;28;20455;-60
2022/05/22 10:33:01;;;;;;;1.63;1.00;;;19.40;99.90;;;;;;5055928;28;20447;-60
2022/05/22 10:35:34;;;;;;;2.13;1.23;;;19.50;99.90;;;;;;5055649;28;20469;-59
2022/05/22 10:38:07;;;;;;;1.80;1.40;;;19.60;99.90;;;;;;5055820;28;20466;-59
2022/05/22 10:43:14;;;;;;;2.90;1.30;;;19.70;99.90;;;;;;5055385;28;21009;-60
2022/05/22 10:45:41;;;;;;;2.77;1.20;;;19.70;99.90;;;;;;5055619;28;20448;-60
2022/05/22 10:48:10;;;;;;;3.30;1.30;;;20.00;99.90;;;;;;5055683;28;20451;-60
2022/05/22 10:50:39;;;;;;;4.47;1.50;;;20.10;99.90;;;;;;5055703;28;20453;-60
2022/05/22 10:53:31;;;;;;;1.40;1.10;;;20.30;99.90;;;;;;5055439;28;20458;-60
2022/05/22 10:56:02;;;;;;;1.30;1.10;;;20.20;99.90;;;;;;5055339;28;20512;-60
2022/05/22 10:58:30;;;;;;;5.00;1.10;;;19.90;99.90;;;;;;5055495;28;20695;-60
2022/05/22 11:00:59;;;;;;;1.70;1.20;;;20.00;99.90;;;;;;5055380;28;20888;-60
2022/05/22 11:03:28;;;;;;;2.10;1.10;;;20.40;99.90;;;;;;5055493;28;20455;-61
2022/05/22 11:05:57;;;;;;;2.53;1.30;;;20.50;99.90;;;;;;5055380;28;20456;-60
2022/05/22 11:08:29;;;;;;;2.57;1.27;;;20.40;99.90;;;;;;5055296;28;20498;-60
2022/05/22 11:10:57;;;;;;;2.17;1.20;;;20.20;99.90;;;;;;5055218;28;20451;-60
2022/05/22 11:13:26;;;;;;;3.23;1.00;;;20.10;99.90;;;;;;5055051;28;20449;-60
2022/05/22 11:15:53;;;;;;;1.73;1.10;;;20.40;99.90;;;;;;5055010;28;20487;-60
2022/05/22 11:18:22;;;;;;;2.20;1.50;;;20.60;99.90;;;;;;5055181;28;20472;-60
2022/05/22 11:20:51;;;;;;;2.30;1.17;;;20.60;99.90;;;;;;5055033;28;20460;-60
2022/05/22 11:23:38;;;;;;;3.57;1.00;;;20.50;99.90;;;;;;5054870;28;20651;-60
2022/05/22 11:26:17;;;;;;;2.67;1.20;;;20.30;99.90;;;;;;5054812;28;20474;-60
2022/05/22 11:29:00;;;;;;;2.47;1.10;;;20.20;99.90;;;;;;5055049;28;20543;-60
2022/05/22 11:31:36;;;;;;;1.40;1.10;;;20.10;99.90;;;;;;5054122;28;20536;-60
2022/05/22 11:34:21;;;;;;;2.20;0.90;;;20.10;99.90;;;;;;5054670;28;20448;-60
2022/05/22 11:36:59;;;;;;;1.93;1.03;;;20.30;99.90;;;;;;5054854;28;20831;-60
2022/05/22 11:39:43;;;;;;;2.30;1.30;;;20.10;99.90;;;;;;5054740;28;20538;-60
2022/05/22 11:42:19;;;;;;;1.53;1.00;;;20.40;99.90;;;;;;5054526;28;20455;-60
2022/05/22 11:45:02;;;;;;;1.43;0.90;;;20.90;99.90;;;;;;5054596;28;20450;-60
2022/05/22 11:47:55;;;;;;;1.87;1.10;;;20.90;99.90;;;;;;5054622;28;20527;-60
2022/05/22 11:50:31;;;;;;;3.63;1.07;;;20.50;99.90;;;;;;5054372;28;20448;-60
2022/05/22 11:53:10;;;;;;;1.63;0.80;;;20.40;99.90;;;;;;5054536;28;20543;-60
2022/05/22 11:55:55;;;;;;;1.93;0.80;;;20.10;99.90;;;;;;5054520;28;20471;-60
2022/05/22 11:58:29;;;;;;;4.50;1.47;;;20.10;99.90;;;;;;5054416;28;20546;-60
2022/05/22 12:01:10;;;;;;;3.53;0.87;;;20.20;99.90;;;;;;5054259;28;20456;-60
2022/05/22 12:04:06;;;;;;;2.67;1.00;;;20.30;99.90;;;;;;5054076;28;20449;-60
2022/05/22 12:06:53;;;;;;;4.13;1.30;;;20.40;99.90;;;;;;5043501;28;20539;-60
2022/05/22 12:09:34;;;;;;;3.23;0.70;;;20.60;99.90;;;;;;5054106;28;20452;-60
2022/05/22 12:12:09;;;;;;;3.63;1.00;;;20.70;99.90;;;;;;5054191;28;20787;-60
2022/05/22 12:14:43;;;;;;;2.00;0.93;;;20.80;99.90;;;;;;5054164;28;20550;-60
2022/05/22 12:17:16;;;;;;;2.63;1.30;;;20.90;99.90;;;;;;5053896;28;20491;-60
2022/05/22 12:19:51;;;;;;;2.07;1.00;;;20.70;99.90;;;;;;5053901;28;20452;-60
2022/05/22 12:22:20;;;;;;;2.63;0.90;;;20.60;99.90;;;;;;5053724;28;20448;-60
2022/05/22 12:24:55;;;;;;;3.90;0.90;;;21.00;99.90;;;;;;5053986;28;20522;-60
2022/05/22 12:27:26;;;;;;;1.07;0.80;;;20.90;99.90;;;;;;5053888;28;20542;-60
2022/05/22 12:30:17;;;;;;;1.70;1.00;;;20.90;99.90;;;;;;5053750;28;20452;-60
2022/05/22 12:32:46;;;;;;;1.77;1.00;;;21.40;99.90;;;;;;5051041;28;20543;-60
2022/05/22 12:35:15;;;;;;;2.13;1.00;;;21.40;99.90;;;;;;5053770;28;20550;-60
2022/05/22 12:37:44;;;;;;;1.30;0.80;;;21.20;99.90;;;;;;5053459;28;20484;-60
2022/05/22 12:40:26;;;;;;;2.33;1.00;;;21.10;99.90;;;;;;5053545;28;20454;-60
2022/05/22 12:42:57;;;;;;;3.93;1.00;;;20.90;99.90;;;;;;5052893;28;20476;-60
2022/05/22 12:45:26;;;;;;;2.53;1.00;;;21.00;99.90;;;;;;5053962;28;20974;-60
2022/05/22 12:47:54;;;;;;;1.93;0.87;;;20.90;99.90;;;;;;5053460;28;20598;-60
2022/05/22 12:50:36;;;;;;;2.13;1.17;;;21.10;99.90;;;;;;5053476;28;20444;-60
2022/05/22 12:53:03;;;;;;;4.07;1.20;;;21.10;99.90;;;;;;5053266;28;20487;-60
2022/05/22 12:55:32;;;;;;;1.60;1.20;;;20.60;99.90;;;;;;5053051;28;20535;-60
2022/05/22 12:58:02;;;;;;;2.10;1.00;;;20.50;99.90;;;;;;5053483;28;20456;-60
2022/05/22 13:00:36;;;;;;;2.80;1.00;;;20.50;99.90;;;;;;5053149;28;20455;-60
2022/05/22 13:03:25;;;;;;;2.97;0.80;;;20.40;99.90;;;;;;5053060;28;20970;-60
2022/05/22 13:05:58;;;;;;;4.03;1.20;;;20.40;99.90;;;;;;5053026;28;20527;-60
2022/05/22 13:08:30;;;;;;;2.00;1.00;;;20.40;99.90;;;;;;5053222;28;20444;-60
2022/05/22 13:10:59;;;;;;;1.60;1.00;;;20.80;99.90;;;;;;5053239;28;20459;-60
2022/05/22 13:13:30;;;;;;;1.00;0.80;;;21.10;99.90;;;;;;5052894;28;20528;-60
2022/05/22 13:16:03;;;;;;;1.93;0.80;;;20.80;99.90;;;;;;5052931;28;20472;-61